Time;durP1;ratioP1;P1;durP2;ratioP2;P2;SDS_P1;SDS_P2;PMS_P1;PMS_P2;Temp;Humidity;BMP_temperature;BMP_pressure;BME280_temperature;BME280_humidity;BME280_pressure;Samples;Min_cycle;Max_cycle;Signal;HPM_P1;HPM_P2
2023/08/18 00:01:31;;;;;;;;;;;21.00;80.10;;;20.02;100.00;96163.88;4965333;28;19940;-66
2023/08/18 00:03:57;;;;;;;;;;;20.80;80.30;;;19.99;100.00;96159.03;4957992;28;19918;-66
2023/08/18 00:06:22;;;;;;;;;;;20.80;80.70;;;19.98;100.00;96148.59;4954474;28;19929;-66
2023/08/18 00:08:48;;;;;;;;;;;20.80;80.90;;;19.97;100.00;96145.13;4960240;28;19942;-66
2023/08/18 00:11:14;;;;;;;;;;;20.80;81.00;;;19.96;100.00;96148.84;4983449;28;20269;-66
2023/08/18 00:13:39;;;;;;;;;;;20.80;81.10;;;19.98;100.00;96146.72;4966846;28;19926;-66
2023/08/18 00:16:05;;;;;;;;;;;20.80;80.70;;;20.01;100.00;96151.56;4968382;28;19918;-66
2023/08/18 00:18:31;;;;;;;;;;;20.90;79.90;;;20.04;100.00;96145.72;4973868;28;19999;-66
2023/08/18 00:20:56;;;;;;;;;;;21.00;79.30;;;20.06;100.00;96140.94;4967159;28;19914;-66
2023/08/18 00:23:23;;;;;;;;;;;21.00;79.20;;;20.06;99.86;96135.59;4966392;28;19914;-65
2023/08/18 00:25:48;;;;;;;;;;;21.00;79.00;;;20.08;99.04;96130.00;4952075;28;20361;-66
2023/08/18 00:28:14;;;;;;;;;;;21.00;78.80;;;20.09;98.99;96116.41;4972138;28;19998;-66
2023/08/18 00:30:40;;;;;;;;;;;21.00;78.80;;;20.11;98.81;96124.97;4958675;28;19939;-66
2023/08/18 00:33:05;;;;;;;;;;;21.00;78.80;;;20.11;97.06;96119.66;4967521;28;19914;-67
2023/08/18 00:35:31;;;;;;;;;;;21.00;78.40;;;20.13;96.99;96133.56;4982435;28;19918;-66
2023/08/18 00:37:56;;;;;;;;;;;20.90;78.00;;;20.12;97.77;96131.94;4968746;28;20232;-67
2023/08/18 00:40:22;;;;;;;;;;;21.00;78.60;;;20.11;98.47;96130.31;4949765;28;19924;-66
2023/08/18 00:42:48;;;;;;;;;;;20.90;78.80;;;20.08;98.53;96136.16;4960613;28;20025;-66
2023/08/18 00:45:14;;;;;;;;;;;21.00;78.90;;;20.08;100.00;96128.16;4969083;28;19933;-66
2023/08/18 00:47:40;;;;;;;;;;;20.90;79.30;;;20.05;100.00;96130.50;4966090;28;20000;-66
2023/08/18 00:50:06;;;;;;;;;;;20.90;79.70;;;20.02;100.00;96125.69;4955676;28;19918;-66
2023/08/18 00:52:31;;;;;;;;;;;20.80;79.90;;;19.98;100.00;96128.03;4968674;28;20058;-66
2023/08/18 00:54:57;;;;;;;;;;;20.80;80.20;;;19.92;100.00;96114.88;4959092;28;20438;-66
2023/08/18 00:57:23;;;;;;;;;;;20.70;80.40;;;19.87;100.00;96108.38;4963701;28;20012;-66
2023/08/18 00:59:49;;;;;;;;;;;20.70;80.40;;;19.81;100.00;96103.25;4951385;28;19926;-66
2023/08/18 01:02:16;;;;;;;;;;;20.60;80.60;;;19.79;100.00;96098.16;4965977;28;19972;-66
2023/08/18 01:04:42;;;;;;;;;;;20.60;80.70;;;19.78;100.00;96099.22;4948830;28;20337;-66
2023/08/18 01:07:08;;;;;;;;;;;20.60;80.30;;;19.79;100.00;96100.00;4977291;28;19928;-66
2023/08/18 01:09:33;;;;;;;;;;;20.60;80.10;;;19.76;100.00;96085.31;4981179;28;19918;-65
2023/08/18 01:12:25;;;;;;;;;;;20.50;80.30;;;19.72;100.00;96078.03;4950015;28;19920;-66
2023/08/18 01:15:00;;;;;;;;;;;20.50;80.30;;;19.67;100.00;96080.63;4973901;28;19925;-68
2023/08/18 01:17:27;;;;;;;;;;;20.50;80.40;;;19.62;100.00;96070.69;4980008;28;19925;-66
2023/08/18 01:19:53;;;;;;;;;;;20.40;80.60;;;19.55;100.00;96072.75;4967810;28;20020;-66
2023/08/18 01:22:19;;;;;;;;;;;20.40;80.80;;;19.46;100.00;96060.81;4978936;28;19922;-66
2023/08/18 01:24:44;;;;;;;;;;;20.30;80.80;;;19.36;100.00;96058.84;4974355;28;19966;-66
2023/08/18 01:27:10;;;;;;;;;;;20.10;81.00;;;19.29;100.00;96052.88;4965975;28;19920;-66
2023/08/18 01:29:35;;;;;;;;;;;20.20;81.20;;;19.24;100.00;96056.28;4965517;28;20005;-65
2023/08/18 01:32:03;;;;;;;;;;;20.10;81.30;;;19.24;100.00;96045.59;4953647;28;19918;-65
2023/08/18 01:34:29;;;;;;;;;;;20.10;81.20;;;19.24;100.00;96047.47;4965861;28;19917;-65
2023/08/18 01:36:55;;;;;;;;;;;20.10;81.20;;;19.24;100.00;96050.13;4966084;28;19949;-65
2023/08/18 01:39:21;;;;;;;;;;;20.10;81.20;;;19.23;100.00;96040.50;4962348;28;19948;-65
2023/08/18 01:41:46;;;;;;;;;;;20.10;81.20;;;19.20;100.00;96044.47;4932508;28;19918;-65
2023/08/18 01:44:15;;;;;;;;;;;20.10;81.10;;;19.19;100.00;96042.03;4947326;28;19923;-67
2023/08/18 01:46:41;;;;;;;;;;;20.10;81.00;;;19.17;100.00;96036.16;4968802;28;19921;-65
2023/08/18 01:49:07;;;;;;;;;;;20.00;81.10;;;19.15;100.00;96032.91;4962333;28;19924;-65
2023/08/18 01:51:33;;;;;;;;;;;20.00;81.10;;;19.10;100.00;96027.50;4948926;28;19918;-65
2023/08/18 01:53:58;;;;;;;;;;;20.00;81.10;;;19.08;100.00;96034.97;4968429;28;19984;-65
2023/08/18 01:56:24;;;;;;;;;;;19.90;81.00;;;19.06;100.00;96035.19;4969061;28;19928;-66
2023/08/18 01:58:50;;;;;;;;;;;20.00;81.00;;;19.05;100.00;96035.44;4965827;28;19917;-65
2023/08/18 02:01:16;;;;;;;;;;;19.90;80.90;;;19.00;100.00;96041.47;4965383;28;19929;-66
2023/08/18 02:03:41;;;;;;;;;;;19.80;81.10;;;18.96;100.00;96037.69;4966711;28;19914;-65
2023/08/18 02:06:08;;;;;;;;;;;19.80;81.00;;;18.94;100.00;96037.94;4965059;28;20060;-65
2023/08/18 02:08:33;;;;;;;;;;;19.80;81.00;;;18.90;100.00;96028.81;4968474;28;20028;-66
2023/08/18 02:11:05;;;;;;;;;;;19.70;81.20;;;18.84;100.00;96035.13;4966720;28;19918;-65
2023/08/18 02:13:31;;;;;;;;;;;19.70;81.10;;;18.79;100.00;96035.03;4958842;28;19949;-66
2023/08/18 02:15:57;;;;;;;;;;;19.60;81.20;;;18.77;100.00;96029.13;4967523;28;20361;-66
2023/08/18 02:18:23;;;;;;;;;;;19.60;81.30;;;18.71;100.00;96029.28;4965589;28;19920;-65
2023/08/18 02:20:55;;;;;;;;;;;19.60;81.20;;;18.66;100.00;96032.69;4981560;28;19918;-65
2023/08/18 02:23:21;;;;;;;;;;;19.50;81.40;;;18.60;100.00;96029.09;4966202;28;20008;-66
2023/08/18 02:25:46;;;;;;;;;;;19.50;81.70;;;18.58;100.00;96025.88;4968292;28;19969;-65
2023/08/18 02:28:12;;;;;;;;;;;19.50;81.60;;;18.57;100.00;96034.91;4967025;28;19937;-65
2023/08/18 02:30:38;;;;;;;;;;;19.50;81.50;;;18.56;100.00;96038.63;4949288;28;20341;-65
2023/08/18 02:33:04;;;;;;;;;;;19.50;81.10;;;18.52;100.00;96039.31;4965573;28;19930;-66
2023/08/18 02:35:29;;;;;;;;;;;19.40;80.60;;;18.48;100.00;96043.53;4979276;28;19932;-65
2023/08/18 02:37:55;;;;;;;;;;;19.30;80.60;;;18.45;100.00;96046.66;4966778;28;20445;-65
2023/08/18 02:40:21;;;;;;;;;;;19.40;80.80;;;18.38;100.00;96041.50;4954169;28;20009;-65
2023/08/18 02:42:46;;;;;;;;;;;19.20;81.40;;;18.31;100.00;96046.94;4980923;28;20385;-65
2023/08/18 02:45:12;;;;;;;;;;;19.20;81.80;;;18.27;100.00;96045.81;4965270;28;19918;-66
2023/08/18 02:47:38;;;;;;;;;;;19.10;82.20;;;18.25;100.00;96042.59;4963183;28;19925;-65
2023/08/18 02:50:05;;;;;;;;;;;19.20;82.30;;;18.24;100.00;96042.81;4962296;28;19922;-65
2023/08/18 02:52:31;;;;;;;;;;;19.10;82.40;;;18.23;100.00;96039.38;4970954;28;20384;-65
2023/08/18 02:54:57;;;;;;;;;;;19.10;82.40;;;18.26;100.00;96044.19;4966568;28;19918;-65
2023/08/18 02:57:23;;;;;;;;;;;19.10;82.00;;;18.24;100.00;96033.00;4968413;28;20302;-66
2023/08/18 02:59:48;;;;;;;;;;;19.20;81.90;;;18.24;100.00;96025.00;4967876;28;19914;-66
2023/08/18 03:02:14;;;;;;;;;;;19.10;82.00;;;18.23;100.00;96023.38;4983111;28;19922;-65
2023/08/18 03:04:40;;;;;;;;;;;19.10;82.20;;;18.22;100.00;96027.09;4969970;28;19972;-65
2023/08/18 03:07:05;;;;;;;;;;;19.10;82.40;;;18.21;100.00;96022.81;4962993;28;19945;-65
2023/08/18 03:09:31;;;;;;;;;;;19.10;82.20;;;18.20;100.00;96029.19;4969309;28;19917;-65
2023/08/18 03:11:57;;;;;;;;;;;19.10;82.40;;;18.19;100.00;96038.22;4969335;28;20370;-65
2023/08/18 03:14:23;;;;;;;;;;;19.10;82.50;;;18.15;100.00;96042.41;4984877;28;20028;-65
2023/08/18 03:16:49;;;;;;;;;;;19.10;82.50;;;18.15;100.00;96047.75;4970010;28;19928;-65
2023/08/18 03:19:15;;;;;;;;;;;19.10;82.60;;;18.12;100.00;96056.22;4981095;28;20488;-66
2023/08/18 03:21:41;;;;;;;;;;;19.10;82.60;;;18.11;100.00;96062.56;4950635;28;20376;-65
2023/08/18 03:24:07;;;;;;;;;;;19.10;82.50;;;18.14;100.00;96066.63;4969623;28;20365;-65
2023/08/18 03:26:32;;;;;;;;;;;19.10;82.50;;;18.14;100.00;96067.41;4968349;28;19918;-65
2023/08/18 03:28:58;;;;;;;;;;;19.10;82.60;;;18.11;100.00;96062.56;4952171;28;19914;-66
2023/08/18 03:31:23;;;;;;;;;;;19.00;83.00;;;18.10;100.00;96071.56;4967797;28;19988;-66
2023/08/18 03:33:49;;;;;;;;;;;19.10;83.10;;;18.11;100.00;96069.75;4968162;28;19941;-66
2023/08/18 03:36:15;;;;;;;;;;;19.10;83.00;;;18.09;100.00;96069.97;4952292;28;19919;-66
2023/08/18 03:38:40;;;;;;;;;;;19.10;83.00;;;18.05;100.00;96069.63;4958071;28;19925;-65
2023/08/18 03:41:06;;;;;;;;;;;19.00;83.00;;;18.05;100.00;96071.47;4967977;28;19988;-67
2023/08/18 03:43:34;;;;;;;;;;;19.10;83.00;;;18.04;100.00;96078.66;4961685;28;19937;-68
2023/08/18 03:46:03;;;;;;;;;;;19.00;83.00;;;18.07;100.00;96072.06;4959855;28;19922;-65
2023/08/18 03:48:30;;;;;;;;;;;19.10;83.00;;;18.08;100.00;96079.00;4964938;28;19918;-68
2023/08/18 03:50:56;;;;;;;;;;;19.10;83.00;;;18.05;100.00;96072.28;4967743;28;19918;-66
2023/08/18 03:53:23;;;;;;;;;;;19.10;83.20;;;18.09;100.00;96071.81;4966678;28;19928;-65
2023/08/18 03:55:50;;;;;;;;;;;19.10;83.20;;;18.12;100.00;96074.84;4968679;28;19973;-65
2023/08/18 03:58:16;;;;;;;;;;;19.20;83.10;;;18.12;100.00;96079.34;4967397;28;19964;-66
2023/08/18 04:00:41;;;;;;;;;;;19.10;83.20;;;18.13;100.00;96081.78;4951661;28;19918;-65
2023/08/18 04:03:08;;;;;;;;;;;19.10;83.10;;;18.15;100.00;96068.22;4968192;28;19922;-65
2023/08/18 04:05:33;;;;;;;;;;;19.20;83.10;;;18.16;100.00;96070.66;4966414;28;20607;-66
2023/08/18 04:07:59;;;;;;;;;;;19.20;83.10;;;18.20;100.00;96074.44;4967918;28;19994;-65
2023/08/18 04:10:24;;;;;;;;;;;19.30;83.00;;;18.20;100.00;96071.78;4968507;28;19918;-65
2023/08/18 04:12:50;;;;;;;;;;;19.30;82.90;;;18.24;100.00;96077.44;4967922;28;19922;-65
2023/08/18 04:15:16;;;;;;;;;;;19.30;82.90;;;18.26;100.00;96078.00;4980839;28;19922;-65
2023/08/18 04:17:41;;;;;;;;;;;19.40;82.80;;;18.26;100.00;96076.16;4971133;28;20278;-65
2023/08/18 04:20:08;;;;;;;;;;;19.30;82.90;;;18.25;100.00;96084.38;4968420;28;19965;-65
2023/08/18 04:22:34;;;;;;;;;;;19.30;82.90;;;18.27;100.00;96083.09;4987337;28;20254;-65
2023/08/18 04:25:00;;;;;;;;;;;19.40;82.70;;;18.29;100.00;96083.66;4969667;28;19972;-65
2023/08/18 04:27:25;;;;;;;;;;;19.40;82.60;;;18.32;100.00;96079.72;4964440;28;20282;-65
2023/08/18 04:29:51;;;;;;;;;;;19.40;82.60;;;18.29;100.00;96083.66;4969204;28;20027;-66
2023/08/18 04:32:17;;;;;;;;;;;19.40;82.40;;;18.26;100.00;96088.66;4966821;28;20293;-66
2023/08/18 04:34:44;;;;;;;;;;;19.40;82.60;;;18.27;100.00;96090.28;4966822;28;19922;-65
2023/08/18 04:37:10;;;;;;;;;;;19.40;82.50;;;18.30;100.00;96103.91;4966490;28;20424;-65
2023/08/18 04:39:36;;;;;;;;;;;19.40;82.50;;;18.30;100.00;96092.47;4957416;28;19922;-66
2023/08/18 04:42:01;;;;;;;;;;;19.40;82.60;;;18.30;100.00;96101.25;4951222;28;19918;-65
2023/08/18 04:44:27;;;;;;;;;;;19.50;82.50;;;18.33;100.00;96099.97;4967608;28;20377;-65
2023/08/18 04:46:53;;;;;;;;;;;19.50;82.40;;;18.35;100.00;96096.06;4963610;28;19918;-65
2023/08/18 04:49:18;;;;;;;;;;;19.50;82.20;;;18.38;100.00;96110.75;4964296;28;19918;-65
2023/08/18 04:51:44;;;;;;;;;;;19.60;82.20;;;18.40;100.00;96105.19;4933200;28;20450;-64
2023/08/18 04:54:11;;;;;;;;;;;19.60;82.30;;;18.43;100.00;96112.69;4937825;28;19914;-67
2023/08/18 04:56:37;;;;;;;;;;;19.60;82.30;;;18.45;100.00;96114.06;4965711;28;19914;-65
2023/08/18 04:59:03;;;;;;;;;;;19.60;82.10;;;18.45;100.00;96108.75;4937066;29;19925;-67
2023/08/18 05:01:29;;;;;;;;;;;19.60;82.00;;;18.48;100.00;96110.91;4930929;28;19918;-67
2023/08/18 05:03:54;;;;;;;;;;;19.60;81.90;;;18.49;100.00;96115.19;4966864;28;19914;-67
2023/08/18 05:06:20;;;;;;;;;;;19.70;81.90;;;18.50;100.00;96114.16;4967072;28;19922;-66
2023/08/18 05:08:46;;;;;;;;;;;19.70;81.80;;;18.54;100.00;96109.16;4964892;28;20015;-69
2023/08/18 05:11:11;;;;;;;;;;;19.80;81.70;;;18.59;100.00;96111.94;4947696;28;19929;-69
2023/08/18 05:13:39;;;;;;;;;;;19.80;81.80;;;18.64;100.00;96114.72;4954142;28;19918;-68
2023/08/18 05:16:05;;;;;;;;;;;19.90;81.70;;;18.67;100.00;96108.91;4947774;28;19932;-68
2023/08/18 05:18:30;;;;;;;;;;;20.00;81.50;;;18.72;100.00;96122.31;4983461;28;19917;-69
2023/08/18 05:20:57;;;;;;;;;;;20.00;81.60;;;18.74;100.00;96120.22;4965774;28;19921;-66
2023/08/18 05:23:23;;;;;;;;;;;20.00;81.40;;;18.77;100.00;96109.06;4966571;28;19960;-67
2023/08/18 05:25:53;;;;;;;;;;;20.10;81.40;;;18.81;100.00;96099.56;4953796;28;20021;-66
2023/08/18 05:28:18;;;;;;;;;;;20.10;81.40;;;18.85;100.00;96107.88;4952635;28;19941;-67
2023/08/18 05:30:49;;;;;;;;;;;20.10;81.40;;;18.88;100.00;96097.56;4966915;28;20409;-67
2023/08/18 05:33:15;;;;;;;;;;;20.20;81.20;;;18.95;100.00;96111.53;4946316;28;19928;-68
2023/08/18 05:35:41;;;;;;;;;;;20.30;81.20;;;19.00;100.00;96102.78;4964870;28;19914;-68
2023/08/18 05:38:10;;;;;;;;;;;20.30;81.20;;;19.06;100.00;96107.19;4968750;28;20000;-69
2023/08/18 05:41:08;;;;;;;;;;;20.40;80.90;;;19.10;100.00;96107.50;4964020;28;19922;-69
2023/08/18 05:43:37;;;;;;;;;;;20.50;80.80;;;19.11;100.00;96101.94;4962163;28;19949;-70
2023/08/18 05:46:03;;;;;;;;;;;20.50;80.60;;;19.15;100.00;96104.91;4951326;28;19922;-69
2023/08/18 05:48:30;;;;;;;;;;;20.50;80.60;;;19.19;100.00;96106.84;4962452;28;19918;-67
2023/08/18 05:50:56;;;;;;;;;;;20.60;80.20;;;19.23;100.00;96104.50;4962062;28;19918;-66
2023/08/18 05:53:21;;;;;;;;;;;20.60;80.00;;;19.27;100.00;96110.97;4978603;28;19968;-67
2023/08/18 05:55:48;;;;;;;;;;;20.60;80.20;;;19.33;100.00;96115.34;4951587;28;20378;-67
2023/08/18 05:58:14;;;;;;;;;;;20.60;79.80;;;19.36;100.00;96120.19;4965860;28;19914;-67
2023/08/18 06:00:39;;;;;;;;;;;20.80;79.90;;;19.42;100.00;96121.88;4965894;28;19918;-67
2023/08/18 06:03:05;;;;;;;;;;;20.90;79.70;;;19.49;100.00;96119.06;4964726;28;19929;-66
2023/08/18 06:05:31;;;;;;;;;;;21.00;79.70;;;19.55;100.00;96126.91;4980413;28;19925;-67
2023/08/18 06:07:56;;;;;;;;;;;21.10;79.50;;;19.62;100.00;96124.06;4948017;28;19922;-72
2023/08/18 06:10:22;;;;;;;;;;;21.10;79.80;;;19.71;100.00;96124.47;4959310;28;19926;-65
2023/08/18 06:12:48;;;;;;;;;;;21.20;79.00;;;19.81;100.00;96119.25;4964847;28;19928;-65
2023/08/18 06:15:19;;;;;;;;;;;21.30;78.70;;;19.88;100.00;96123.34;4973954;28;19922;-66
2023/08/18 06:17:44;;;;;;;;;;;21.50;78.50;;;19.99;100.00;96126.19;4974071;28;19965;-68
2023/08/18 06:20:11;;;;;;;;;;;21.60;77.70;;;20.03;100.00;96117.41;4965362;28;19960;-70
2023/08/18 06:22:37;;;;;;;;;;;21.60;77.30;;;20.07;100.00;96129.22;4958787;28;19937;-68
2023/08/18 06:25:06;;;;;;;;;;;21.60;76.90;;;20.16;100.00;96127.75;4973109;28;20369;-68
2023/08/18 06:27:32;;;;;;;;;;;21.70;76.90;;;20.19;100.00;96121.91;4967411;28;20017;-70
2023/08/18 06:29:58;;;;;;;;;;;21.80;76.60;;;20.28;100.00;96129.47;4951817;28;19972;-69
2023/08/18 06:32:23;;;;;;;;;;;21.90;76.60;;;20.34;100.00;96128.47;4968640;28;19929;-67
2023/08/18 06:34:52;;;;;;;;;;;22.00;76.00;;;20.44;100.00;96129.44;4964601;28;20346;-70
2023/08/18 06:37:18;;;;;;;;;;;22.10;75.40;;;20.52;100.00;96119.34;4966218;28;20289;-70
2023/08/18 06:39:44;;;;;;;;;;;22.20;74.00;;;20.59;99.36;96125.28;4964907;28;19922;-67
2023/08/18 06:42:09;;;;;;;;;;;22.20;73.40;;;20.65;99.19;96130.47;4966511;28;19932;-67
2023/08/18 06:44:35;;;;;;;;;;;22.30;72.60;;;20.73;99.14;96119.31;4970431;28;19924;-69
2023/08/18 06:47:01;;;;;;;;;;;22.50;72.80;;;20.81;97.13;96123.38;4969460;28;20377;-70
2023/08/18 06:49:27;;;;;;;;;;;22.50;71.70;;;20.86;98.48;96114.63;4969472;28;19918;-67
2023/08/18 06:51:52;;;;;;;;;;;22.60;72.30;;;20.95;98.53;96123.78;4967777;28;19920;-70
2023/08/18 06:54:18;;;;;;;;;;;22.70;72.30;;;21.05;97.35;96119.34;4955192;28;19937;-66
2023/08/18 06:56:44;;;;;;;;;;;22.80;71.50;;;21.15;96.99;96117.81;4953435;28;20317;-70
2023/08/18 06:59:12;;;;;;;;;;;22.90;71.60;;;21.22;93.91;96119.19;4984598;28;20283;-66
2023/08/18 07:01:38;;;;;;;;;;;23.00;69.80;;;21.30;94.73;96121.47;4965543;28;20006;-70
2023/08/18 07:04:04;;;;;;;;;;;23.10;70.40;;;21.43;94.84;96114.84;4964236;28;19926;-69
2023/08/18 07:06:31;;;;;;;;;;;23.30;70.40;;;21.53;91.65;96114.13;4979941;28;20392;-72
2023/08/18 07:08:56;;;;;;;;;;;23.30;68.50;;;21.62;89.42;96124.09;4942777;28;19929;-71
2023/08/18 07:11:22;;;;;;;;;;;23.40;67.70;;;21.73;90.37;96122.28;4965494;28;19936;-68
2023/08/18 07:13:48;;;;;;;;;;;23.50;67.80;;;21.84;87.86;96126.63;4953082;28;20441;-67
2023/08/18 07:16:14;;;;;;;;;;;23.70;66.50;;;21.98;89.49;96125.09;4986053;28;19918;-69
2023/08/18 07:18:39;;;;;;;;;;;23.80;66.80;;;22.09;86.33;96122.50;4983915;28;19917;-67
2023/08/18 07:21:05;;;;;;;;;;;23.90;65.40;;;22.25;87.19;96121.50;4968138;28;20420;-68
2023/08/18 07:23:31;;;;;;;;;;;24.10;65.80;;;22.39;86.82;96127.97;4967689;28;20012;-66
2023/08/18 07:25:56;;;;;;;;;;;24.40;65.10;;;22.54;86.45;96136.06;4948279;28;19922;-70
2023/08/18 07:28:22;;;;;;;;;;;24.60;64.40;;;22.73;84.02;96122.19;4981746;28;19940;-69
2023/08/18 07:30:48;;;;;;;;;;;24.80;63.00;;;22.90;82.21;96125.47;4959294;28;19924;-67
2023/08/18 07:33:13;;;;;;;;;;;25.00;62.00;;;23.11;81.71;96129.78;4968968;28;19941;-67
2023/08/18 07:35:39;;;;;;;;;;;25.30;61.20;;;23.29;81.13;96125.75;4969168;28;20497;-68
2023/08/18 07:38:05;;;;;;;;;;;25.50;60.70;;;23.47;79.51;96116.34;4967175;28;19918;-67
2023/08/18 07:40:30;;;;;;;;;;;25.70;59.10;;;23.62;78.51;96124.44;4966095;28;20491;-67
2023/08/18 07:42:56;;;;;;;;;;;25.90;58.80;;;23.83;80.62;96136.75;4978177;28;19930;-68
2023/08/18 07:45:22;;;;;;;;;;;26.20;59.70;;;24.01;78.21;96131.88;4965998;28;19922;-68
2023/08/18 07:47:47;;;;;;;;;;;26.20;58.20;;;24.20;78.75;96135.56;4950164;28;20400;-67
2023/08/18 07:50:13;;;;;;;;;;;26.50;58.50;;;24.40;77.46;96135.50;4952754;28;19918;-68
2023/08/18 07:52:40;;;;;;;;;;;26.70;57.40;;;24.62;77.29;96134.34;4956094;28;19918;-66
2023/08/18 07:55:07;;;;;;;;;;;27.00;57.30;;;24.80;72.18;96116.75;4968535;28;20019;-68
2023/08/18 07:57:33;;;;;;;;;;;27.10;53.70;;;24.93;71.73;96125.03;4967369;28;19973;-66
2023/08/18 08:00:03;;;;;;;;;;;27.10;53.60;;;25.00;74.82;96130.91;4958215;28;20165;-70
2023/08/18 08:02:28;;;;;;;;;;;27.30;55.90;;;25.19;74.74;96130.25;4951430;28;19977;-69
2023/08/18 08:04:54;;;;;;;;;;;27.50;55.70;;;25.34;73.30;96116.66;4967847;28;19925;-69
2023/08/18 08:07:21;;;;;;;;;;;27.60;54.70;;;25.52;73.55;96128.63;4963977;28;19917;-68
2023/08/18 08:09:47;;;;;;;;;;;27.80;54.70;;;25.68;71.26;96113.16;4967361;28;19921;-68
2023/08/18 08:12:12;;;;;;;;;;;28.00;53.40;;;25.80;69.13;96106.31;4968070;28;19918;-68
2023/08/18 08:14:38;;;;;;;;;;;28.10;52.00;;;25.95;70.29;96116.13;4983010;28;20325;-68
2023/08/18 08:17:04;;;;;;;;;;;28.30;51.50;;;26.09;69.93;96108.97;4968349;28;20037;-68
2023/08/18 08:19:29;;;;;;;;;;;28.50;52.00;;;26.23;68.90;96109.03;4963093;28;19968;-68
2023/08/18 08:21:56;;;;;;;;;;;28.60;51.60;;;26.37;68.51;96106.50;4967916;28;19922;-68
2023/08/18 08:24:21;;;;;;;;;;;28.80;50.90;;;26.54;69.46;96117.59;4969891;28;20289;-71
2023/08/18 08:26:47;;;;;;;;;;;29.00;51.30;;;26.70;67.53;96120.88;4967826;28;19918;-66
2023/08/18 08:29:13;;;;;;;;;;;29.20;50.10;;;26.86;66.06;96108.78;4962781;28;20377;-68
2023/08/18 08:31:39;;;;;;;;;;;29.30;49.40;;;26.98;65.25;96111.06;4965188;28;20301;-69
2023/08/18 08:34:04;;;;;;;;;;;29.50;48.40;;;27.14;64.15;96105.13;4937276;28;19926;-70
2023/08/18 08:36:32;;;;;;;;;;;29.70;46.90;;;27.32;65.31;96121.63;4954221;28;19949;-67
2023/08/18 08:38:59;;;;;;;;;;;30.00;47.90;;;27.53;64.34;96108.56;4967356;28;19922;-69
2023/08/18 08:41:26;;;;;;;;;;;30.20;47.30;;;27.71;64.95;96102.34;4961483;28;20109;-69
2023/08/18 08:43:51;;;;;;;;;;;30.40;47.70;;;27.93;64.46;96109.78;4962698;28;19972;-68
2023/08/18 08:46:17;;;;;;;;;;;30.80;46.80;;;28.13;62.22;96104.00;4966597;28;20021;-70
2023/08/18 08:48:45;;;;;;;;;;;30.90;45.40;;;28.26;60.91;96099.69;4963833;28;19922;-66
2023/08/18 08:51:11;;;;;;;;;;;30.90;44.50;;;28.42;61.50;96103.69;4959925;28;20033;-68
2023/08/18 08:53:39;;;;;;;;;;;31.20;44.40;;;28.63;60.38;96101.34;4966160;28;20385;-68
2023/08/18 08:56:05;;;;;;;;;;;31.50;44.10;;;28.80;59.94;96100.72;4952837;28;20675;-67
2023/08/18 08:58:32;;;;;;;;;;;31.60;43.90;;;29.01;59.52;96085.66;4968147;28;19918;-70
2023/08/18 09:01:01;;;;;;;;;;;32.00;43.00;;;29.27;59.87;96099.38;4966919;28;19928;-67
2023/08/18 09:03:29;;;;;;;;;;;32.20;43.00;;;29.51;57.97;96088.25;4980962;28;20240;-64
2023/08/18 09:05:55;;;;;;;;;;;32.60;41.70;;;29.74;56.95;96076.25;4968135;28;19953;-65
2023/08/18 09:08:21;;;;;;;;;;;32.80;41.30;;;29.83;54.58;96068.94;4967997;28;19953;-64
2023/08/18 09:10:46;;;;;;;;;;;32.80;39.30;;;30.07;55.05;96081.34;4963093;28;19929;-65
2023/08/18 09:13:12;;;;;;;;;;;33.20;39.40;;;30.20;53.50;96060.66;4965716;28;19922;-66
2023/08/18 09:15:41;;;;;;;;;;;33.00;37.90;;;30.32;55.81;96080.63;4981594;28;19929;-65
2023/08/18 09:18:07;;;;;;;;;;;33.30;40.10;;;30.54;53.04;96059.91;4965108;28;20010;-64
2023/08/18 09:20:34;;;;;;;;;;;33.60;37.70;;;30.74;51.37;96051.19;4967431;28;19918;-67
2023/08/18 09:22:59;;;;;;;;;;;34.10;35.80;;;30.93;51.21;96057.09;4966750;28;20008;-65
2023/08/18 09:25:25;;;;;;;;;;;34.30;36.50;;;31.20;51.46;96055.19;4979416;28;19918;-64
2023/08/18 09:27:51;;;;;;;;;;;34.60;36.50;;;31.47;50.75;96057.56;4968546;28;19922;-63
2023/08/18 09:30:16;;;;;;;;;;;35.00;35.60;;;31.73;50.98;96062.16;4966328;28;20237;-69
2023/08/18 09:32:42;;;;;;;;;;;35.30;35.90;;;31.92;49.91;96059.84;4967288;28;20235;-67
2023/08/18 09:35:11;;;;;;;;;;;35.40;34.80;;;32.02;49.18;96047.78;4970447;28;19922;-67
2023/08/18 09:37:37;;;;;;;;;;;35.30;34.30;;;32.16;49.11;96049.16;4967032;28;20388;-68
2023/08/18 09:40:03;;;;;;;;;;;35.50;34.60;;;32.34;48.25;96038.97;4965994;28;19926;-65
2023/08/18 09:42:28;;;;;;;;;;;35.90;33.90;;;32.59;47.64;96042.66;4965856;28;19965;-65
2023/08/18 09:44:56;;;;;;;;;;;36.00;33.20;;;32.78;47.40;96036.75;4967055;28;19925;-65
2023/08/18 09:47:23;;;;;;;;;;;36.40;32.60;;;32.98;47.36;96046.06;4965061;28;20035;-65
2023/08/18 09:49:48;;;;;;;;;;;36.60;33.20;;;33.31;48.48;96055.06;4965031;28;19937;-65
2023/08/18 09:52:14;;;;;;;;;;;37.10;33.60;;;33.60;47.30;96036.97;4967649;28;20465;-67
2023/08/18 09:54:52;;;;;;;;;;;37.50;32.80;;;33.84;45.46;96019.88;4957395;28;19925;-68
2023/08/18 09:57:30;;;;;;;;;;;37.70;31.80;;;34.15;44.90;96016.56;4965501;28;19925;-67
2023/08/18 09:59:56;;;;;;;;;;;38.20;31.00;;;34.39;46.59;96032.94;4980083;28;19918;-68
2023/08/18 10:02:23;;;;;;;;;;;38.60;32.10;;;34.57;44.65;96012.44;4964324;28;20033;-63
2023/08/18 10:04:49;;;;;;;;;;;39.10;30.20;;;34.69;44.75;96015.16;4962064;28;19921;-63
2023/08/18 10:07:16;;;;;;;;;;;39.10;30.40;;;34.88;43.71;96016.50;4961914;28;20476;-63
2023/08/18 10:09:41;;;;;;;;;;;39.40;29.60;;;35.12;41.80;95993.72;4965421;28;20407;-65
2023/08/18 10:12:07;;;;;;;;;;;39.80;29.30;;;35.35;43.41;96013.13;4962067;28;19918;-66
2023/08/18 10:14:33;;;;;;;;;;;40.30;29.30;;;35.50;43.12;96012.31;4965682;28;20301;-65
2023/08/18 10:16:58;;;;;;;;;;;40.60;27.80;;;35.66;40.65;96001.41;4963375;28;20305;-66
2023/08/18 10:19:49;;;;;;;;;;;41.00;26.50;;;35.90;42.92;96020.41;4961245;28;19926;-65
2023/08/18 10:22:19;;;;;;;;;;;41.30;27.50;;;36.07;42.76;96009.09;4963265;28;19926;-64
2023/08/18 10:24:48;;;;;;;;;;;41.90;26.90;;;36.23;40.00;95997.31;4948925;28;19925;-65
2023/08/18 10:27:28;;;;;;;;;;;42.00;26.10;;;36.47;39.58;95995.16;4960889;28;19932;-65
2023/08/18 10:29:57;;;;;;;;;;;42.50;24.90;;;36.64;40.07;96006.84;4942593;28;20034;-66
2023/08/18 10:32:23;;;;;;;;;;;42.60;25.40;;;36.89;40.69;96002.69;4945120;28;20017;-66
2023/08/18 10:34:49;;;;;;;;;;;43.20;25.20;;;37.03;39.88;96003.00;4966449;28;19914;-67
2023/08/18 10:37:15;;;;;;;;;;;43.40;24.50;;;37.28;39.36;96000.75;4962151;28;20286;-66
2023/08/18 10:39:40;;;;;;;;;;;43.60;24.50;;;37.45;38.69;95985.78;4965611;28;19922;-64
2023/08/18 10:42:07;;;;;;;;;;;43.80;25.00;;;37.69;40.22;95995.59;4960846;28;19930;-66
2023/08/18 10:44:34;;;;;;;;;;;44.50;25.00;;;37.90;39.73;96000.69;4968863;28;20374;-66
2023/08/18 10:47:02;;;;;;;;;;;44.70;24.10;;;38.05;38.66;95972.28;4958940;28;19929;-66
2023/08/18 10:49:28;;;;;;;;;;;45.00;23.70;;;38.26;39.80;95997.34;4957299;28;19997;-67
2023/08/18 10:51:53;;;;;;;;;;;45.10;24.30;;;38.52;38.03;95977.31;4963607;28;19925;-67
2023/08/18 10:54:21;;;;;;;;;;;45.40;23.40;;;38.69;37.48;95970.44;4947424;28;19929;-66
2023/08/18 10:56:47;;;;;;;;;;;45.50;22.60;;;38.90;36.47;95969.91;4949401;28;19933;-66
2023/08/18 10:59:13;;;;;;;;;;;45.80;22.10;;;39.10;37.55;95965.06;4966209;28;19922;-67
2023/08/18 11:01:38;;;;;;;;;;;46.00;22.70;;;39.32;32.32;95914.56;4964663;28;19934;-67
2023/08/18 11:04:04;;;;;;;;;;;46.00;21.60;;;39.50;36.86;95948.56;4963698;28;19925;-66
2023/08/18 11:06:30;;;;;;;;;;;46.20;22.00;;;39.63;35.81;95951.06;4962728;28;20369;-66
2023/08/18 11:08:56;;;;;;;;;;;46.00;22.90;;;39.66;36.80;95945.59;4959935;28;19924;-66